createdAt,value
2023-03-19T06:02:57.624Z,11.10
2023-03-19T06:05:27.802Z,11.13
2023-03-19T06:08:04.593Z,11.18
2023-03-19T06:10:34.824Z,11.22
2023-03-19T06:13:11.529Z,11.15
2023-03-19T06:15:42.090Z,11.16
2023-03-19T06:18:21.577Z,11.23
2023-03-19T06:20:51.808Z,11.24
2023-03-19T06:23:28.583Z,11.23
2023-03-19T06:25:58.699Z,11.23
2023-03-19T06:28:35.619Z,11.24
2023-03-19T06:31:05.679Z,11.25
2023-03-19T06:33:44.575Z,11.24
2023-03-19T06:36:15.172Z,11.27
2023-03-19T06:38:51.601Z,11.24
2023-03-19T06:41:21.947Z,11.21
2023-03-19T06:43:58.640Z,11.22
2023-03-19T06:46:28.780Z,11.20
2023-03-19T06:49:07.579Z,11.24
2023-03-19T06:51:44.618Z,11.20
2023-03-19T06:54:14.676Z,11.21
2023-03-19T06:56:51.615Z,11.25
2023-03-19T06:59:22.184Z,11.27
2023-03-19T07:01:58.664Z,11.30
2023-03-19T07:04:31.422Z,11.31
2023-03-19T07:07:08.624Z,11.29
2023-03-19T07:09:38.688Z,11.27
2023-03-19T07:12:16.615Z,11.27
2023-03-19T07:14:46.563Z,11.25
2023-03-19T07:17:22.677Z,11.29
2023-03-19T07:19:55.575Z,11.23
2023-03-19T07:22:32.666Z,11.23
2023-03-19T07:25:09.671Z,11.21
2023-03-19T07:27:39.723Z,11.25
2023-03-19T07:30:19.700Z,11.30
2023-03-19T07:32:56.870Z,11.24
2023-03-19T07:35:29.620Z,11.31
2023-03-19T07:38:05.658Z,11.35
2023-03-19T07:40:51.330Z,11.41
2023-03-19T07:43:29.339Z,11.39
2023-03-19T07:46:05.808Z,11.46
2023-03-19T07:48:35.933Z,11.49
2023-03-19T07:51:15.732Z,11.51
2023-03-19T07:53:45.712Z,11.50
2023-03-19T07:56:22.736Z,11.54
2023-03-19T07:58:52.791Z,11.56
2023-03-19T08:01:29.717Z,11.65
2023-03-19T08:04:06.884Z,11.67
2023-03-19T08:06:40.140Z,11.71
2023-03-19T08:09:16.718Z,11.72
2023-03-19T08:11:47.243Z,11.75
2023-03-19T08:14:25.764Z,11.83
2023-03-19T08:16:55.999Z,11.90
2023-03-19T08:19:32.725Z,11.94
2023-03-19T08:22:05.492Z,11.98
2023-03-19T08:24:41.826Z,12.00
2023-03-19T08:27:12.373Z,12.00
2023-03-19T08:29:48.785Z,12.06
2023-03-19T08:32:25.748Z,12.00
2023-03-19T08:34:55.907Z,12.01
2023-03-19T08:37:35.744Z,12.02
2023-03-19T08:40:06.310Z,12.06
2023-03-19T08:42:46.847Z,12.12
2023-03-19T08:45:19.006Z,12.14
2023-03-19T08:47:55.763Z,12.16
2023-03-19T08:50:25.882Z,12.23
2023-03-19T08:53:05.762Z,12.31
2023-03-19T08:55:35.888Z,12.34
2023-03-19T08:58:12.797Z,12.35
2023-03-19T09:00:42.859Z,12.48
2023-03-19T09:03:19.825Z,12.46
2023-03-19T09:05:56.745Z,12.47
2023-03-19T09:08:29.470Z,12.53
2023-03-19T09:11:06.795Z,12.60
2023-03-19T09:13:38.337Z,12.63
2023-03-19T09:16:15.922Z,12.57
2023-03-19T09:18:46.128Z,12.61
2023-03-19T09:21:22.778Z,12.61
2023-03-19T09:23:55.643Z,12.61
2023-03-19T09:26:32.841Z,12.65
2023-03-19T09:29:03.649Z,12.72
2023-03-19T09:31:39.935Z,12.74
2023-03-19T09:34:10.465Z,12.75
2023-03-19T09:36:48.141Z,12.75
2023-03-19T09:39:26.813Z,12.77
2023-03-19T09:42:22.631Z,12.76
2023-03-19T09:45:01.847Z,12.74
2023-03-19T09:47:42.120Z,12.81
2023-03-19T09:50:18.722Z,12.86
2023-03-19T09:52:57.815Z,12.92
2023-03-19T09:55:44.197Z,12.96
2023-03-19T09:58:25.886Z,13.04
2023-03-19T10:01:03.817Z,13.12
2023-03-19T10:03:53.922Z,13.11
2023-03-19T10:06:38.847Z,13.18
2023-03-19T10:09:36.550Z,13.20
2023-03-19T10:12:40.834Z,13.23
2023-03-19T10:15:22.671Z,13.39
2023-03-19T10:18:09.948Z,13.49
2023-03-19T10:20:51.002Z,13.55
2023-03-19T10:23:43.925Z,13.51
2023-03-19T10:26:18.509Z,13.60
2023-03-19T10:29:08.061Z,13.55
2023-03-19T10:31:57.017Z,13.51
2023-03-19T10:34:37.865Z,13.53
2023-03-19T10:37:22.938Z,13.54
2023-03-19T10:39:55.094Z,13.56
2023-03-19T10:43:01.927Z,13.54
2023-03-19T10:45:44.064Z,13.54
2023-03-19T10:48:20.834Z,13.53
2023-03-19T10:51:02.940Z,13.52
2023-03-19T10:53:42.983Z,13.30
2023-03-19T10:56:23.206Z,13.48
2023-03-19T10:59:09.932Z,13.50
2023-03-19T11:01:44.468Z,13.56
2023-03-19T11:04:25.982Z,13.58
2023-03-19T11:07:03.936Z,13.56
2023-03-19T11:09:37.896Z,13.56
2023-03-19T11:12:29.950Z,13.54
2023-03-19T11:15:03.697Z,13.55
2023-03-19T11:17:49.969Z,13.55
2023-03-19T11:20:32.000Z,13.60
2023-03-19T11:23:10.997Z,13.42
2023-03-19T11:25:44.191Z,13.59
2023-03-19T11:28:26.137Z,13.55
2023-03-19T11:31:05.301Z,13.54
2023-03-19T11:34:17.954Z,13.48
2023-03-19T11:36:59.761Z,13.58
2023-03-19T11:39:43.958Z,13.60
2023-03-19T11:42:47.250Z,13.57
2023-03-19T11:45:41.656Z,13.63
2023-03-19T11:48:39.155Z,13.63
2023-03-19T11:51:25.975Z,13.75
2023-03-19T11:54:07.834Z,13.79
2023-03-19T11:56:54.159Z,13.90
2023-03-19T11:59:58.069Z,13.89
2023-03-19T12:02:58.887Z,13.98
2023-03-19T12:05:43.034Z,14.02
2023-03-19T12:08:32.763Z,14.01
2023-03-19T12:11:23.042Z,13.94
2023-03-19T12:14:30.050Z,13.96
2023-03-19T12:17:26.071Z,14.05
2023-03-19T12:20:26.464Z,14.14
2023-03-19T12:23:37.071Z,14.21
2023-03-19T12:26:16.021Z,14.37
2023-03-19T12:28:57.058Z,14.40
2023-03-19T12:32:24.076Z,14.47
2023-03-19T12:34:58.577Z,14.71
2023-03-19T12:37:42.085Z,14.92
2023-03-19T12:40:30.958Z,15.09
2023-03-19T12:43:12.036Z,15.35
2023-03-19T12:45:46.759Z,15.51
2023-03-19T12:48:31.101Z,15.55
2023-03-19T12:51:08.368Z,15.64
2023-03-19T12:53:57.058Z,15.79
2023-03-19T12:56:46.110Z,15.98
2023-03-19T12:59:27.640Z,16.17
2023-03-19T13:02:12.171Z,16.32
2023-03-19T13:04:51.001Z,16.40
2023-03-19T13:07:33.122Z,16.48
2023-03-19T13:10:11.070Z,16.65
2023-03-19T13:12:51.136Z,16.70
2023-03-19T13:15:30.701Z,16.70
2023-03-19T13:18:25.189Z,16.75
2023-03-19T13:21:14.727Z,16.82
2023-03-19T13:23:55.117Z,16.97
2023-03-19T13:26:25.657Z,17.05
2023-03-19T13:29:12.095Z,17.06
2023-03-19T13:31:42.208Z,17.03
2023-03-19T13:34:34.171Z,16.99
2023-03-19T13:37:11.235Z,17.09
2023-03-19T13:39:49.182Z,17.16
2023-03-19T13:42:42.695Z,17.07
2023-03-19T13:45:45.140Z,17.11
2023-03-19T13:48:41.683Z,17.05
2023-03-19T13:51:39.136Z,17.11
2023-03-19T13:54:20.110Z,17.15
2023-03-19T13:57:26.180Z,17.06
2023-03-19T14:00:03.160Z,17.05
